sensor_id;sensor_type;location;lat;lon;timestamp;P1;durP1;ratioP1;P2;durP2;ratioP2
57025;SDS011;43961;52.940;6.834;2023-11-21T00:01:37;0.85;;;0.85;;
57025;SDS011;43961;52.940;6.834;2023-11-21T00:04:03;0.80;;;0.80;;
57025;SDS011;43961;52.940;6.834;2023-11-21T00:06:29;0.50;;;0.50;;
57025;SDS011;43961;52.940;6.834;2023-11-21T00:08:55;0.30;;;0.30;;
57025;SDS011;43961;52.940;6.834;2023-11-21T00:11:21;4.47;;;0.90;;
57025;SDS011;43961;52.940;6.834;2023-11-21T00:13:47;0.88;;;0.88;;
57025;SDS011;43961;52.940;6.834;2023-11-21T00:16:12;0.50;;;0.50;;
57025;SDS011;43961;52.940;6.834;2023-11-21T00:18:38;1.55;;;1.10;;
57025;SDS011;43961;52.940;6.834;2023-11-21T00:21:04;0.68;;;0.68;;
57025;SDS011;43961;52.940;6.834;2023-11-21T00:23:30;0.82;;;0.82;;
57025;SDS011;43961;52.940;6.834;2023-11-21T00:25:57;1.00;;;1.00;;
57025;SDS011;43961;52.940;6.834;2023-11-21T00:28:22;0.70;;;0.70;;
57025;SDS011;43961;52.940;6.834;2023-11-21T00:30:48;0.50;;;0.50;;
57025;SDS011;43961;52.940;6.834;2023-11-21T00:33:14;0.43;;;0.43;;
57025;SDS011;43961;52.940;6.834;2023-11-21T00:35:40;0.70;;;0.70;;
57025;SDS011;43961;52.940;6.834;2023-11-21T00:38:06;0.70;;;0.70;;
57025;SDS011;43961;52.940;6.834;2023-11-21T00:40:33;1.23;;;0.82;;
57025;SDS011;43961;52.940;6.834;2023-11-21T00:42:59;0.60;;;0.60;;
57025;SDS011;43961;52.940;6.834;2023-11-21T00:45:24;0.50;;;0.50;;
57025;SDS011;43961;52.940;6.834;2023-11-21T00:47:50;1.15;;;1.13;;
57025;SDS011;43961;52.940;6.834;2023-11-21T00:50:16;2.50;;;1.48;;
57025;SDS011;43961;52.940;6.834;2023-11-21T00:52:42;1.02;;;0.95;;
57025;SDS011;43961;52.940;6.834;2023-11-21T00:55:07;1.33;;;1.23;;
57025;SDS011;43961;52.940;6.834;2023-11-21T00:57:34;0.95;;;0.95;;
57025;SDS011;43961;52.940;6.834;2023-11-21T01:00:00;1.25;;;1.25;;
57025;SDS011;43961;52.940;6.834;2023-11-21T01:02:26;0.60;;;0.60;;
57025;SDS011;43961;52.940;6.834;2023-11-21T01:04:51;0.60;;;0.60;;
57025;SDS011;43961;52.940;6.834;2023-11-21T01:07:17;0.43;;;0.43;;
57025;SDS011;43961;52.940;6.834;2023-11-21T01:42:54;5.35;;;1.20;;
57025;SDS011;43961;52.940;6.834;2023-11-21T01:45:21;2.28;;;1.25;;
57025;SDS011;43961;52.940;6.834;2023-11-21T01:47:46;2.30;;;2.20;;
57025;SDS011;43961;52.940;6.834;2023-11-21T01:50:15;1.08;;;0.70;;
57025;SDS011;43961;52.940;6.834;2023-11-21T01:52:43;0.88;;;0.88;;
57025;SDS011;43961;52.940;6.834;2023-11-21T01:55:10;1.52;;;1.42;;
57025;SDS011;43961;52.940;6.834;2023-11-21T01:57:37;0.60;;;0.60;;
57025;SDS011;43961;52.940;6.834;2023-11-21T02:00:04;0.77;;;0.77;;
57025;SDS011;43961;52.940;6.834;2023-11-21T02:02:47;1.67;;;0.50;;
57025;SDS011;43961;52.940;6.834;2023-11-21T02:05:17;0.70;;;0.70;;
57025;SDS011;43961;52.940;6.834;2023-11-21T02:07:43;1.77;;;1.05;;
57025;SDS011;43961;52.940;6.834;2023-11-21T02:10:10;0.82;;;0.82;;
57025;SDS011;43961;52.940;6.834;2023-11-21T02:12:39;2.55;;;1.52;;
57025;SDS011;43961;52.940;6.834;2023-11-21T02:15:07;1.03;;;0.93;;
57025;SDS011;43961;52.940;6.834;2023-11-21T02:17:43;1.15;;;1.05;;
57025;SDS011;43961;52.940;6.834;2023-11-21T02:20:12;0.73;;;0.73;;
57025;SDS011;43961;52.940;6.834;2023-11-21T02:22:41;0.60;;;0.60;;
57025;SDS011;43961;52.940;6.834;2023-11-21T02:25:07;0.73;;;0.73;;
57025;SDS011;43961;52.940;6.834;2023-11-21T02:27:33;1.48;;;1.30;;
57025;SDS011;43961;52.940;6.834;2023-11-21T02:29:59;0.80;;;0.77;;
57025;SDS011;43961;52.940;6.834;2023-11-21T02:32:26;0.47;;;0.47;;
57025;SDS011;43961;52.940;6.834;2023-11-21T02:34:51;0.50;;;0.50;;
57025;SDS011;43961;52.940;6.834;2023-11-21T02:37:18;0.40;;;0.40;;
57025;SDS011;43961;52.940;6.834;2023-11-21T02:39:45;0.57;;;0.57;;
57025;SDS011;43961;52.940;6.834;2023-11-21T02:42:10;0.70;;;0.70;;
57025;SDS011;43961;52.940;6.834;2023-11-21T02:44:36;0.50;;;0.50;;
57025;SDS011;43961;52.940;6.834;2023-11-21T02:47:02;0.90;;;0.90;;
57025;SDS011;43961;52.940;6.834;2023-11-21T02:49:27;0.35;;;0.35;;
57025;SDS011;43961;52.940;6.834;2023-11-21T02:51:54;0.85;;;0.85;;
57025;SDS011;43961;52.940;6.834;2023-11-21T02:54:22;0.80;;;0.80;;
57025;SDS011;43961;52.940;6.834;2023-11-21T02:56:48;2.50;;;0.75;;
57025;SDS011;43961;52.940;6.834;2023-11-21T02:59:14;0.70;;;0.70;;
57025;SDS011;43961;52.940;6.834;2023-11-21T03:01:44;0.77;;;0.77;;
57025;SDS011;43961;52.940;6.834;2023-11-21T03:04:10;0.63;;;0.63;;
57025;SDS011;43961;52.940;6.834;2023-11-21T03:06:36;1.75;;;1.55;;
57025;SDS011;43961;52.940;6.834;2023-11-21T03:09:01;0.70;;;0.70;;
57025;SDS011;43961;52.940;6.834;2023-11-21T03:11:27;0.98;;;0.75;;
57025;SDS011;43961;52.940;6.834;2023-11-21T03:13:53;0.77;;;0.77;;
57025;SDS011;43961;52.940;6.834;2023-11-21T03:16:18;0.50;;;0.50;;
57025;SDS011;43961;52.940;6.834;2023-11-21T03:18:44;0.40;;;0.40;;
57025;SDS011;43961;52.940;6.834;2023-11-21T03:21:10;0.50;;;0.50;;
57025;SDS011;43961;52.940;6.834;2023-11-21T03:23:36;0.65;;;0.65;;
57025;SDS011;43961;52.940;6.834;2023-11-21T03:26:02;0.50;;;0.50;;
57025;SDS011;43961;52.940;6.834;2023-11-21T03:28:28;0.32;;;0.32;;
57025;SDS011;43961;52.940;6.834;2023-11-21T03:30:55;0.73;;;0.73;;
57025;SDS011;43961;52.940;6.834;2023-11-21T03:33:21;0.55;;;0.55;;
57025;SDS011;43961;52.940;6.834;2023-11-21T03:35:47;0.40;;;0.40;;
57025;SDS011;43961;52.940;6.834;2023-11-21T03:38:14;0.50;;;0.50;;
57025;SDS011;43961;52.940;6.834;2023-11-21T03:40:39;0.45;;;0.45;;
57025;SDS011;43961;52.940;6.834;2023-11-21T03:43:05;1.20;;;1.08;;
57025;SDS011;43961;52.940;6.834;2023-11-21T03:45:31;0.50;;;0.50;;
57025;SDS011;43961;52.940;6.834;2023-11-21T03:47:57;1.10;;;0.68;;
57025;SDS011;43961;52.940;6.834;2023-11-21T03:50:23;0.40;;;0.40;;
57025;SDS011;43961;52.940;6.834;2023-11-21T03:52:48;0.40;;;0.40;;
57025;SDS011;43961;52.940;6.834;2023-11-21T03:55:14;1.25;;;1.05;;
57025;SDS011;43961;52.940;6.834;2023-11-21T03:57:40;0.50;;;0.50;;
57025;SDS011;43961;52.940;6.834;2023-11-21T04:00:06;0.40;;;0.40;;
57025;SDS011;43961;52.940;6.834;2023-11-21T04:02:34;2.17;;;1.20;;
57025;SDS011;43961;52.940;6.834;2023-11-21T04:05:00;0.60;;;0.60;;
57025;SDS011;43961;52.940;6.834;2023-11-21T04:07:25;0.43;;;0.43;;
57025;SDS011;43961;52.940;6.834;2023-11-21T04:09:52;0.85;;;0.85;;
57025;SDS011;43961;52.940;6.834;2023-11-21T04:12:18;1.05;;;1.05;;
57025;SDS011;43961;52.940;6.834;2023-11-21T04:14:44;0.40;;;0.40;;
57025;SDS011;43961;52.940;6.834;2023-11-21T04:17:10;1.85;;;1.05;;
57025;SDS011;43961;52.940;6.834;2023-11-21T04:19:36;1.00;;;0.95;;
57025;SDS011;43961;52.940;6.834;2023-11-21T04:22:01;0.77;;;0.77;;
57025;SDS011;43961;52.940;6.834;2023-11-21T04:24:27;2.08;;;1.35;;
57025;SDS011;43961;52.940;6.834;2023-11-21T04:26:53;1.52;;;1.42;;
57025;SDS011;43961;52.940;6.834;2023-11-21T04:29:19;3.28;;;1.20;;
57025;SDS011;43961;52.940;6.834;2023-11-21T04:31:44;1.50;;;1.40;;
57025;SDS011;43961;52.940;6.834;2023-11-21T04:34:11;1.85;;;0.60;;
57025;SDS011;43961;52.940;6.834;2023-11-21T04:36:39;1.30;;;1.23;;
57025;SDS011;43961;52.940;6.834;2023-11-21T04:39:05;0.60;;;0.60;;
57025;SDS011;43961;52.940;6.834;2023-11-21T04:41:31;0.65;;;0.65;;
57025;SDS011;43961;52.940;6.834;2023-11-21T04:43:57;0.70;;;0.70;;
57025;SDS011;43961;52.940;6.834;2023-11-21T04:46:25;0.43;;;0.43;;
57025;SDS011;43961;52.940;6.834;2023-11-21T04:48:51;4.93;;;1.08;;
57025;SDS011;43961;52.940;6.834;2023-11-21T04:51:17;3.95;;;1.92;;
57025;SDS011;43961;52.940;6.834;2023-11-21T04:53:43;1.75;;;1.65;;
57025;SDS011;43961;52.940;6.834;2023-11-21T04:56:08;2.50;;;2.30;;
57025;SDS011;43961;52.940;6.834;2023-11-21T04:58:34;1.55;;;1.30;;
57025;SDS011;43961;52.940;6.834;2023-11-21T05:01:00;4.97;;;1.33;;
57025;SDS011;43961;52.940;6.834;2023-11-21T05:03:26;3.55;;;3.20;;
57025;SDS011;43961;52.940;6.834;2023-11-21T05:05:51;1.05;;;1.05;;
57025;SDS011;43961;52.940;6.834;2023-11-21T05:08:18;2.00;;;1.52;;
57025;SDS011;43961;52.940;6.834;2023-11-21T05:10:45;3.72;;;3.42;;
57025;SDS011;43961;52.940;6.834;2023-11-21T05:13:11;2.83;;;2.33;;
57025;SDS011;43961;52.940;6.834;2023-11-21T05:15:36;5.45;;;2.45;;
57025;SDS011;43961;52.940;6.834;2023-11-21T05:18:04;1.80;;;1.58;;
57025;SDS011;43961;52.940;6.834;2023-11-21T05:20:30;1.73;;;1.63;;
57025;SDS011;43961;52.940;6.834;2023-11-21T05:22:56;1.38;;;1.27;;
57025;SDS011;43961;52.940;6.834;2023-11-21T05:25:21;1.88;;;1.73;;
57025;SDS011;43961;52.940;6.834;2023-11-21T05:27:47;7.13;;;1.98;;
57025;SDS011;43961;52.940;6.834;2023-11-21T05:30:13;1.08;;;1.08;;
57025;SDS011;43961;52.940;6.834;2023-11-21T05:32:40;3.58;;;2.00;;
57025;SDS011;43961;52.940;6.834;2023-11-21T05:35:09;3.13;;;1.83;;
57025;SDS011;43961;52.940;6.834;2023-11-21T05:37:40;5.15;;;2.63;;
57025;SDS011;43961;52.940;6.834;2023-11-21T05:40:06;3.20;;;1.80;;
57025;SDS011;43961;52.940;6.834;2023-11-21T05:42:33;4.93;;;2.42;;
57025;SDS011;43961;52.940;6.834;2023-11-21T05:45:00;1.05;;;1.05;;
57025;SDS011;43961;52.940;6.834;2023-11-21T05:47:38;7.28;;;2.85;;
57025;SDS011;43961;52.940;6.834;2023-11-21T05:50:11;8.48;;;2.90;;
57025;SDS011;43961;52.940;6.834;2023-11-21T05:52:45;4.05;;;3.47;;
57025;SDS011;43961;52.940;6.834;2023-11-21T05:55:12;2.30;;;2.20;;
57025;SDS011;43961;52.940;6.834;2023-11-21T05:57:38;1.25;;;1.25;;
57025;SDS011;43961;52.940;6.834;2023-11-21T06:00:06;1.25;;;1.17;;
57025;SDS011;43961;52.940;6.834;2023-11-21T06:02:50;2.35;;;2.15;;
57025;SDS011;43961;52.940;6.834;2023-11-21T06:05:21;6.85;;;2.25;;
57025;SDS011;43961;52.940;6.834;2023-11-21T06:07:49;1.95;;;1.85;;
57025;SDS011;43961;52.940;6.834;2023-11-21T06:10:15;4.22;;;3.17;;
57025;SDS011;43961;52.940;6.834;2023-11-21T06:12:42;0.95;;;0.95;;
57025;SDS011;43961;52.940;6.834;2023-11-21T06:15:09;1.23;;;1.23;;
57025;SDS011;43961;52.940;6.834;2023-11-21T06:17:38;0.75;;;0.75;;
57025;SDS011;43961;52.940;6.834;2023-11-21T06:20:05;3.03;;;1.25;;
57025;SDS011;43961;52.940;6.834;2023-11-21T06:22:39;2.88;;;2.65;;
57025;SDS011;43961;52.940;6.834;2023-11-21T06:25:06;8.77;;;4.40;;
57025;SDS011;43961;52.940;6.834;2023-11-21T06:27:33;3.72;;;1.88;;
57025;SDS011;43961;52.940;6.834;2023-11-21T06:30:09;5.45;;;4.88;;
57025;SDS011;43961;52.940;6.834;2023-11-21T06:32:37;4.10;;;3.25;;
57025;SDS011;43961;52.940;6.834;2023-11-21T06:35:03;16.55;;;5.60;;
57025;SDS011;43961;52.940;6.834;2023-11-21T06:37:30;2.47;;;1.85;;
57025;SDS011;43961;52.940;6.834;2023-11-21T06:39:57;7.18;;;3.70;;
57025;SDS011;43961;52.940;6.834;2023-11-21T06:42:23;7.50;;;5.97;;
57025;SDS011;43961;52.940;6.834;2023-11-21T06:44:49;5.65;;;2.67;;
57025;SDS011;43961;52.940;6.834;2023-11-21T06:47:19;4.57;;;3.63;;
57025;SDS011;43961;52.940;6.834;2023-11-21T06:49:45;8.98;;;6.68;;
57025;SDS011;43961;52.940;6.834;2023-11-21T06:52:14;7.07;;;4.47;;
57025;SDS011;43961;52.940;6.834;2023-11-21T06:54:40;4.18;;;3.83;;
57025;SDS011;43961;52.940;6.834;2023-11-21T06:57:06;4.43;;;2.88;;
57025;SDS011;43961;52.940;6.834;2023-11-21T06:59:31;5.07;;;4.13;;
57025;SDS011;43961;52.940;6.834;2023-11-21T07:01:57;8.20;;;3.35;;
57025;SDS011;43961;52.940;6.834;2023-11-21T07:04:23;3.40;;;1.83;;
57025;SDS011;43961;52.940;6.834;2023-11-21T07:06:50;4.87;;;4.27;;
57025;SDS011;43961;52.940;6.834;2023-11-21T07:09:16;3.75;;;2.53;;
57025;SDS011;43961;52.940;6.834;2023-11-21T07:11:42;3.95;;;2.63;;
57025;SDS011;43961;52.940;6.834;2023-11-21T07:14:08;2.97;;;2.50;;
57025;SDS011;43961;52.940;6.834;2023-11-21T07:16:38;3.80;;;3.47;;
57025;SDS011;43961;52.940;6.834;2023-11-21T07:19:04;3.15;;;2.85;;
57025;SDS011;43961;52.940;6.834;2023-11-21T07:21:33;5.53;;;4.38;;
57025;SDS011;43961;52.940;6.834;2023-11-21T07:24:01;3.25;;;3.05;;
57025;SDS011;43961;52.940;6.834;2023-11-21T07:26:27;4.22;;;3.83;;
57025;SDS011;43961;52.940;6.834;2023-11-21T07:28:53;2.85;;;2.67;;
57025;SDS011;43961;52.940;6.834;2023-11-21T07:31:19;0.93;;;0.93;;
57025;SDS011;43961;52.940;6.834;2023-11-21T07:33:48;5.38;;;3.17;;
57025;SDS011;43961;52.940;6.834;2023-11-21T07:36:14;3.67;;;2.22;;
57025;SDS011;43961;52.940;6.834;2023-11-21T07:38:40;4.18;;;2.75;;
57025;SDS011;43961;52.940;6.834;2023-11-21T07:41:07;10.85;;;4.22;;
57025;SDS011;43961;52.940;6.834;2023-11-21T07:43:35;4.13;;;3.63;;
57025;SDS011;43961;52.940;6.834;2023-11-21T07:46:02;4.90;;;4.45;;
57025;SDS011;43961;52.940;6.834;2023-11-21T07:48:31;9.07;;;5.40;;
57025;SDS011;43961;52.940;6.834;2023-11-21T07:50:57;5.93;;;3.22;;
57025;SDS011;43961;52.940;6.834;2023-11-21T07:53:24;5.75;;;2.42;;
57025;SDS011;43961;52.940;6.834;2023-11-21T07:55:55;4.45;;;3.55;;
57025;SDS011;43961;52.940;6.834;2023-11-21T07:58:31;4.30;;;3.10;;
57025;SDS011;43961;52.940;6.834;2023-11-21T08:00:58;8.23;;;4.50;;
57025;SDS011;43961;52.940;6.834;2023-11-21T08:03:24;6.88;;;3.17;;
57025;SDS011;43961;52.940;6.834;2023-11-21T08:05:51;8.35;;;6.32;;
57025;SDS011;43961;52.940;6.834;2023-11-21T08:08:17;19.75;;;7.90;;
57025;SDS011;43961;52.940;6.834;2023-11-21T08:10:44;9.75;;;5.43;;
57025;SDS011;43961;52.940;6.834;2023-11-21T08:13:21;17.13;;;6.13;;
57025;SDS011;43961;52.940;6.834;2023-11-21T08:15:50;7.70;;;4.30;;
57025;SDS011;43961;52.940;6.834;2023-11-21T08:18:15;18.10;;;7.00;;
57025;SDS011;43961;52.940;6.834;2023-11-21T08:20:42;9.98;;;6.78;;
57025;SDS011;43961;52.940;6.834;2023-11-21T08:23:09;7.65;;;5.85;;
57025;SDS011;43961;52.940;6.834;2023-11-21T08:25:34;16.15;;;9.30;;
57025;SDS011;43961;52.940;6.834;2023-11-21T08:28:00;12.90;;;8.70;;
57025;SDS011;43961;52.940;6.834;2023-11-21T08:30:26;5.70;;;5.05;;
57025;SDS011;43961;52.940;6.834;2023-11-21T08:32:55;13.10;;;7.97;;
57025;SDS011;43961;52.940;6.834;2023-11-21T08:35:24;15.95;;;6.68;;
57025;SDS011;43961;52.940;6.834;2023-11-21T08:37:53;5.77;;;4.33;;
57025;SDS011;43961;52.940;6.834;2023-11-21T08:40:20;10.05;;;5.68;;
57025;SDS011;43961;52.940;6.834;2023-11-21T08:42:46;9.23;;;5.45;;
57025;SDS011;43961;52.940;6.834;2023-11-21T08:45:13;5.80;;;4.97;;
57025;SDS011;43961;52.940;6.834;2023-11-21T08:47:42;7.85;;;5.60;;
57025;SDS011;43961;52.940;6.834;2023-11-21T08:50:12;27.38;;;9.50;;
57025;SDS011;43961;52.940;6.834;2023-11-21T08:52:41;7.32;;;6.60;;
57025;SDS011;43961;52.940;6.834;2023-11-21T08:55:08;6.28;;;5.70;;
57025;SDS011;43961;52.940;6.834;2023-11-21T08:57:37;13.60;;;7.57;;
57025;SDS011;43961;52.940;6.834;2023-11-21T09:00:05;7.70;;;5.88;;
57025;SDS011;43961;52.940;6.834;2023-11-21T09:02:33;7.38;;;5.18;;
57025;SDS011;43961;52.940;6.834;2023-11-21T09:04:59;11.85;;;5.35;;
57025;SDS011;43961;52.940;6.834;2023-11-21T09:07:28;10.13;;;7.00;;
57025;SDS011;43961;52.940;6.834;2023-11-21T09:09:54;17.10;;;6.65;;
57025;SDS011;43961;52.940;6.834;2023-11-21T09:12:20;23.02;;;10.18;;
57025;SDS011;43961;52.940;6.834;2023-11-21T09:14:46;6.28;;;4.32;;
57025;SDS011;43961;52.940;6.834;2023-11-21T09:17:12;9.23;;;5.88;;
57025;SDS011;43961;52.940;6.834;2023-11-21T09:19:39;6.47;;;5.65;;
57025;SDS011;43961;52.940;6.834;2023-11-21T09:22:06;5.70;;;3.35;;
57025;SDS011;43961;52.940;6.834;2023-11-21T09:24:35;11.70;;;5.80;;
57025;SDS011;43961;52.940;6.834;2023-11-21T09:27:02;6.60;;;4.72;;
57025;SDS011;43961;52.940;6.834;2023-11-21T09:29:30;5.15;;;4.50;;
57025;SDS011;43961;52.940;6.834;2023-11-21T09:31:57;4.93;;;4.53;;
57025;SDS011;43961;52.940;6.834;2023-11-21T09:34:24;15.53;;;5.20;;
57025;SDS011;43961;52.940;6.834;2023-11-21T09:36:50;6.10;;;5.15;;
57025;SDS011;43961;52.940;6.834;2023-11-21T09:39:16;6.22;;;5.65;;
57025;SDS011;43961;52.940;6.834;2023-11-21T09:41:44;6.72;;;4.78;;
57025;SDS011;43961;52.940;6.834;2023-11-21T09:44:17;5.20;;;4.40;;
57025;SDS011;43961;52.940;6.834;2023-11-21T09:46:47;4.13;;;3.83;;
57025;SDS011;43961;52.940;6.834;2023-11-21T09:49:14;4.80;;;4.35;;
57025;SDS011;43961;52.940;6.834;2023-11-21T09:51:43;3.80;;;3.55;;
57025;SDS011;43961;52.940;6.834;2023-11-21T09:54:10;12.02;;;6.13;;
57025;SDS011;43961;52.940;6.834;2023-11-21T09:56:39;31.50;;;11.80;;
57025;SDS011;43961;52.940;6.834;2023-11-21T09:59:05;12.30;;;9.88;;
57025;SDS011;43961;52.940;6.834;2023-11-21T10:01:34;12.05;;;7.95;;
57025;SDS011;43961;52.940;6.834;2023-11-21T10:04:02;6.40;;;5.18;;
57025;SDS011;43961;52.940;6.834;2023-11-21T10:06:28;8.13;;;6.25;;
57025;SDS011;43961;52.940;6.834;2023-11-21T10:08:55;10.32;;;5.85;;
57025;SDS011;43961;52.940;6.834;2023-11-21T10:11:24;8.70;;;6.18;;
57025;SDS011;43961;52.940;6.834;2023-11-21T10:13:56;8.63;;;6.05;;
57025;SDS011;43961;52.940;6.834;2023-11-21T10:16:25;6.43;;;4.97;;
57025;SDS011;43961;52.940;6.834;2023-11-21T10:18:52;7.15;;;4.43;;
57025;SDS011;43961;52.940;6.834;2023-11-21T10:21:22;5.30;;;4.13;;
57025;SDS011;43961;52.940;6.834;2023-11-21T10:23:48;10.43;;;6.70;;
57025;SDS011;43961;52.940;6.834;2023-11-21T10:26:18;8.52;;;5.07;;
57025;SDS011;43961;52.940;6.834;2023-11-21T10:28:59;3.92;;;3.08;;
57025;SDS011;43961;52.940;6.834;2023-11-21T10:31:28;9.45;;;5.47;;
57025;SDS011;43961;52.940;6.834;2023-11-21T10:36:43;4.22;;;3.92;;
57025;SDS011;43961;52.940;6.834;2023-11-21T10:39:09;6.80;;;4.03;;
57025;SDS011;43961;52.940;6.834;2023-11-21T10:41:39;4.97;;;4.35;;
57025;SDS011;43961;52.940;6.834;2023-11-21T10:44:05;6.38;;;4.38;;
57025;SDS011;43961;52.940;6.834;2023-11-21T10:46:34;7.47;;;6.72;;
57025;SDS011;43961;52.940;6.834;2023-11-21T10:49:00;2.85;;;2.38;;
57025;SDS011;43961;52.940;6.834;2023-11-21T10:51:27;5.40;;;4.05;;
57025;SDS011;43961;52.940;6.834;2023-11-21T10:53:53;5.75;;;4.18;;
57025;SDS011;43961;52.940;6.834;2023-11-21T10:56:19;2.55;;;2.33;;
57025;SDS011;43961;52.940;6.834;2023-11-21T10:58:48;30.42;;;6.13;;
57025;SDS011;43961;52.940;6.834;2023-11-21T11:01:19;4.45;;;3.00;;
57025;SDS011;43961;52.940;6.834;2023-11-21T11:03:48;1.98;;;1.75;;
57025;SDS011;43961;52.940;6.834;2023-11-21T11:06:15;5.57;;;4.40;;
57025;SDS011;43961;52.940;6.834;2023-11-21T11:08:42;9.65;;;5.72;;
57025;SDS011;43961;52.940;6.834;2023-11-21T11:11:10;7.97;;;4.88;;
57025;SDS011;43961;52.940;6.834;2023-11-21T11:13:37;3.65;;;3.45;;
57025;SDS011;43961;52.940;6.834;2023-11-21T11:16:04;16.98;;;3.53;;
57025;SDS011;43961;52.940;6.834;2023-11-21T11:18:32;6.60;;;2.90;;
57025;SDS011;43961;52.940;6.834;2023-11-21T11:21:07;12.38;;;5.40;;
57025;SDS011;43961;52.940;6.834;2023-11-21T11:27:20;5.97;;;4.32;;
57025;SDS011;43961;52.940;6.834;2023-11-21T11:34:47;6.43;;;3.10;;
57025;SDS011;43961;52.940;6.834;2023-11-21T11:37:21;10.73;;;4.72;;
57025;SDS011;43961;52.940;6.834;2023-11-21T11:39:48;5.13;;;4.45;;
57025;SDS011;43961;52.940;6.834;2023-11-21T11:42:15;8.35;;;5.53;;
57025;SDS011;43961;52.940;6.834;2023-11-21T11:47:31;10.90;;;3.80;;
57025;SDS011;43961;52.940;6.834;2023-11-21T11:50:10;7.82;;;3.85;;
57025;SDS011;43961;52.940;6.834;2023-11-21T11:52:51;8.05;;;5.07;;
57025;SDS011;43961;52.940;6.834;2023-11-21T11:55:22;14.30;;;7.35;;
57025;SDS011;43961;52.940;6.834;2023-11-21T12:02:45;4.45;;;3.45;;
57025;SDS011;43961;52.940;6.834;2023-11-21T12:05:16;4.88;;;3.20;;
57025;SDS011;43961;52.940;6.834;2023-11-21T12:07:52;3.67;;;3.38;;
57025;SDS011;43961;52.940;6.834;2023-11-21T12:10:20;8.18;;;5.10;;
57025;SDS011;43961;52.940;6.834;2023-11-21T12:12:56;4.72;;;4.03;;
57025;SDS011;43961;52.940;6.834;2023-11-21T12:15:23;8.40;;;3.67;;
57025;SDS011;43961;52.940;6.834;2023-11-21T12:17:50;3.45;;;3.17;;
57025;SDS011;43961;52.940;6.834;2023-11-21T12:20:23;8.65;;;5.93;;
57025;SDS011;43961;52.940;6.834;2023-11-21T12:22:59;7.75;;;5.80;;
57025;SDS011;43961;52.940;6.834;2023-11-21T12:25:26;14.32;;;5.95;;
57025;SDS011;43961;52.940;6.834;2023-11-21T12:27:59;5.10;;;3.83;;
57025;SDS011;43961;52.940;6.834;2023-11-21T12:30:26;2.67;;;2.40;;
57025;SDS011;43961;52.940;6.834;2023-11-21T12:32:55;7.07;;;3.22;;
57025;SDS011;43961;52.940;6.834;2023-11-21T12:35:31;9.07;;;4.38;;
57025;SDS011;43961;52.940;6.834;2023-11-21T12:38:02;5.28;;;4.75;;
57025;SDS011;43961;52.940;6.834;2023-11-21T12:40:34;3.28;;;3.00;;
57025;SDS011;43961;52.940;6.834;2023-11-21T12:43:00;4.45;;;1.63;;
57025;SDS011;43961;52.940;6.834;2023-11-21T12:45:32;6.70;;;4.40;;
57025;SDS011;43961;52.940;6.834;2023-11-21T12:48:02;4.88;;;2.92;;
57025;SDS011;43961;52.940;6.834;2023-11-21T12:50:34;3.25;;;2.80;;
57025;SDS011;43961;52.940;6.834;2023-11-21T12:55:34;2.45;;;2.25;;
57025;SDS011;43961;52.940;6.834;2023-11-21T12:58:07;5.47;;;3.25;;
57025;SDS011;43961;52.940;6.834;2023-11-21T13:00:35;2.85;;;2.67;;
57025;SDS011;43961;52.940;6.834;2023-11-21T13:05:35;4.63;;;4.22;;
57025;SDS011;43961;52.940;6.834;2023-11-21T13:08:09;3.38;;;3.08;;
57025;SDS011;43961;52.940;6.834;2023-11-21T13:13:07;4.68;;;3.72;;
57025;SDS011;43961;52.940;6.834;2023-11-21T13:15:38;6.53;;;4.35;;
57025;SDS011;43961;52.940;6.834;2023-11-21T13:18:05;2.78;;;2.30;;
57025;SDS011;43961;52.940;6.834;2023-11-21T13:20:32;2.78;;;2.53;;
57025;SDS011;43961;52.940;6.834;2023-11-21T13:22:59;3.75;;;3.08;;
57025;SDS011;43961;52.940;6.834;2023-11-21T13:25:26;2.00;;;1.90;;
57025;SDS011;43961;52.940;6.834;2023-11-21T13:27:56;3.13;;;1.85;;
57025;SDS011;43961;52.940;6.834;2023-11-21T13:30:22;5.32;;;3.13;;
57025;SDS011;43961;52.940;6.834;2023-11-21T13:32:52;8.02;;;3.28;;
57025;SDS011;43961;52.940;6.834;2023-11-21T13:35:22;3.83;;;3.53;;
57025;SDS011;43961;52.940;6.834;2023-11-21T13:37:56;3.65;;;3.30;;
57025;SDS011;43961;52.940;6.834;2023-11-21T13:40:26;6.63;;;4.30;;
57025;SDS011;43961;52.940;6.834;2023-11-21T13:42:55;3.60;;;2.88;;
57025;SDS011;43961;52.940;6.834;2023-11-21T13:45:24;8.27;;;4.65;;
57025;SDS011;43961;52.940;6.834;2023-11-21T13:47:51;3.67;;;2.45;;
57025;SDS011;43961;52.940;6.834;2023-11-21T13:50:20;4.28;;;3.88;;
57025;SDS011;43961;52.940;6.834;2023-11-21T13:52:52;3.00;;;2.75;;
57025;SDS011;43961;52.940;6.834;2023-11-21T13:55:18;3.53;;;3.30;;
57025;SDS011;43961;52.940;6.834;2023-11-21T13:57:45;8.98;;;3.60;;
57025;SDS011;43961;52.940;6.834;2023-11-21T14:00:15;4.55;;;4.15;;
57025;SDS011;43961;52.940;6.834;2023-11-21T14:03:00;2.45;;;2.25;;
57025;SDS011;43961;52.940;6.834;2023-11-21T14:05:29;3.13;;;2.58;;
57025;SDS011;43961;52.940;6.834;2023-11-21T14:07:56;5.78;;;2.78;;
57025;SDS011;43961;52.940;6.834;2023-11-21T14:10:28;1.55;;;1.48;;
57025;SDS011;43961;52.940;6.834;2023-11-21T14:13:05;5.20;;;3.05;;
57025;SDS011;43961;52.940;6.834;2023-11-21T14:15:31;3.03;;;2.80;;
57025;SDS011;43961;52.940;6.834;2023-11-21T14:17:58;4.10;;;2.85;;
57025;SDS011;43961;52.940;6.834;2023-11-21T14:20:27;2.33;;;2.03;;
57025;SDS011;43961;52.940;6.834;2023-11-21T14:22:54;6.93;;;3.35;;
57025;SDS011;43961;52.940;6.834;2023-11-21T14:25:19;5.18;;;3.55;;
57025;SDS011;43961;52.940;6.834;2023-11-21T14:27:47;3.53;;;3.33;;
57025;SDS011;43961;52.940;6.834;2023-11-21T14:30:13;1.95;;;1.48;;
57025;SDS011;43961;52.940;6.834;2023-11-21T14:32:40;5.90;;;1.60;;
57025;SDS011;43961;52.940;6.834;2023-11-21T14:35:06;3.45;;;3.15;;
57025;SDS011;43961;52.940;6.834;2023-11-21T14:37:34;5.93;;;2.95;;
57025;SDS011;43961;52.940;6.834;2023-11-21T14:40:00;4.22;;;3.63;;
57025;SDS011;43961;52.940;6.834;2023-11-21T14:42:26;2.03;;;1.90;;
57025;SDS011;43961;52.940;6.834;2023-11-21T14:47:25;4.78;;;2.90;;
57025;SDS011;43961;52.940;6.834;2023-11-21T14:49:52;6.30;;;3.80;;
57025;SDS011;43961;52.940;6.834;2023-11-21T14:52:21;6.63;;;2.05;;
57025;SDS011;43961;52.940;6.834;2023-11-21T14:55:02;11.15;;;2.50;;
57025;SDS011;43961;52.940;6.834;2023-11-21T14:57:46;1.20;;;1.10;;
57025;SDS011;43961;52.940;6.834;2023-11-21T15:00:18;4.35;;;2.90;;
57025;SDS011;43961;52.940;6.834;2023-11-21T15:03:00;1.25;;;1.25;;
57025;SDS011;43961;52.940;6.834;2023-11-21T15:05:26;1.30;;;1.20;;
57025;SDS011;43961;52.940;6.834;2023-11-21T15:07:56;3.83;;;2.20;;
57025;SDS011;43961;52.940;6.834;2023-11-21T15:10:33;1.77;;;1.65;;
57025;SDS011;43961;52.940;6.834;2023-11-21T15:15:37;8.90;;;2.58;;
57025;SDS011;43961;52.940;6.834;2023-11-21T15:18:04;2.40;;;2.25;;
57025;SDS011;43961;52.940;6.834;2023-11-21T15:20:31;1.52;;;1.42;;
57025;SDS011;43961;52.940;6.834;2023-11-21T15:22:57;2.35;;;1.55;;
57025;SDS011;43961;52.940;6.834;2023-11-21T15:25:23;3.30;;;3.00;;
57025;SDS011;43961;52.940;6.834;2023-11-21T15:27:49;6.80;;;3.03;;
57025;SDS011;43961;52.940;6.834;2023-11-21T15:30:15;3.38;;;3.15;;
57025;SDS011;43961;52.940;6.834;2023-11-21T15:32:45;2.05;;;1.90;;
57025;SDS011;43961;52.940;6.834;2023-11-21T15:35:11;4.32;;;2.80;;
57025;SDS011;43961;52.940;6.834;2023-11-21T15:37:39;6.05;;;4.03;;
57025;SDS011;43961;52.940;6.834;2023-11-21T15:40:05;2.83;;;2.63;;
57025;SDS011;43961;52.940;6.834;2023-11-21T15:42:33;3.60;;;3.25;;
57025;SDS011;43961;52.940;6.834;2023-11-21T15:45:01;4.80;;;3.40;;
57025;SDS011;43961;52.940;6.834;2023-11-21T15:49:55;6.55;;;2.03;;
57025;SDS011;43961;52.940;6.834;2023-11-21T15:52:21;3.97;;;2.05;;
57025;SDS011;43961;52.940;6.834;2023-11-21T15:54:46;2.92;;;2.25;;
57025;SDS011;43961;52.940;6.834;2023-11-21T15:57:12;2.22;;;2.08;;